createdAt,value
2018-10-02T00:09:51.684Z,10.82
2018-10-02T00:12:51.567Z,10.92
2018-10-02T00:35:22.286Z,11.03
2018-10-02T00:45:01.049Z,11.00
2018-10-02T00:47:45.601Z,11.05
2018-10-02T00:50:28.600Z,11.11
2018-10-02T00:57:07.898Z,11.18
2018-10-02T01:17:18.766Z,11.00
2018-10-02T01:20:06.434Z,10.99
2018-10-02T01:22:49.215Z,11.02
2018-10-02T01:28:37.371Z,10.96
2018-10-02T01:34:25.276Z,10.97
2018-10-02T01:37:00.906Z,11.01
2018-10-02T01:39:46.396Z,11.03
2018-10-02T01:42:48.168Z,11.06
2018-10-02T01:45:28.799Z,11.04
2018-10-02T01:48:12.639Z,10.99
2018-10-02T01:50:54.632Z,10.95
2018-10-02T01:53:35.741Z,10.91
2018-10-02T01:56:25.013Z,10.90
2018-10-02T01:59:44.350Z,10.92
2018-10-02T02:02:54.406Z,10.90
2018-10-02T02:05:40.839Z,10.85
2018-10-02T02:08:32.165Z,10.85
2018-10-02T02:56:10.453Z,10.88
2018-10-02T03:01:47.766Z,10.87
2018-10-02T03:04:32.317Z,10.92
2018-10-02T03:07:17.344Z,10.90
2018-10-02T03:12:37.178Z,10.98
2018-10-02T03:15:18.805Z,11.02
2018-10-02T03:20:42.523Z,11.03
2018-10-02T03:23:23.497Z,11.05
2018-10-02T03:25:59.507Z,11.01
2018-10-02T03:28:36.323Z,10.91
2018-10-02T03:31:18.788Z,10.90
2018-10-02T03:36:55.943Z,10.88
2018-10-02T03:39:35.424Z,10.83
2018-10-02T03:42:19.907Z,10.85
2018-10-02T03:44:52.826Z,10.83
2018-10-02T03:47:26.801Z,10.90
2018-10-02T03:50:12.309Z,10.90
2018-10-02T03:52:55.632Z,10.90
2018-10-02T03:55:31.553Z,10.88
2018-10-02T03:58:04.378Z,10.87
2018-10-02T04:00:38.544Z,10.90
2018-10-02T04:03:14.888Z,10.92
2018-10-02T04:05:49.958Z,10.94
2018-10-02T04:08:23.313Z,10.95
2018-10-02T04:10:54.015Z,10.93
2018-10-02T04:16:20.632Z,10.97
2018-10-02T04:18:59.220Z,10.94
2018-10-02T04:21:39.273Z,10.94
2018-10-02T04:27:04.613Z,10.95
2018-10-02T04:31:45.059Z,10.97
2018-10-02T04:37:21.336Z,10.73
2018-10-02T05:04:42.483Z,10.06
2018-10-02T05:07:23.971Z,10.05
2018-10-02T06:17:19.309Z,10.75
2018-10-02T06:20:14.630Z,10.68
2018-10-02T07:50:43.055Z,11.90
2018-10-02T07:53:16.394Z,11.93
2018-10-02T07:55:47.072Z,12.04
2018-10-02T07:58:38.458Z,12.12
2018-10-02T08:01:16.856Z,12.12
2018-10-02T08:03:46.836Z,12.17
2018-10-02T08:06:18.441Z,12.24
2018-10-02T08:08:54.016Z,12.29
2018-10-02T08:11:26.358Z,12.32
2018-10-02T08:13:57.251Z,12.46
2018-10-02T08:16:32.072Z,12.57
2018-10-02T08:19:06.709Z,12.65
2018-10-02T08:22:08.354Z,12.68
2018-10-02T08:24:43.745Z,12.66
2018-10-02T08:27:32.729Z,12.70
2018-10-02T08:30:11.450Z,12.76
2018-10-02T08:32:59.247Z,12.86
2018-10-02T08:35:35.853Z,12.91
2018-10-02T08:38:36.400Z,13.00
2018-10-02T08:41:29.841Z,13.13
2018-10-02T08:44:02.675Z,13.23
2018-10-02T08:46:40.685Z,13.15
2018-10-02T08:49:13.053Z,13.23
2018-10-02T08:51:46.637Z,13.42
2018-10-02T08:54:20.467Z,13.48
2018-10-02T08:56:50.790Z,13.58
2018-10-02T08:59:30.577Z,13.71
2018-10-02T09:02:07.001Z,13.93
2018-10-02T09:04:42.389Z,13.78
2018-10-02T09:07:18.180Z,13.71
2018-10-02T09:10:03.607Z,13.78
2018-10-02T09:12:39.816Z,13.72
2018-10-02T09:15:22.159Z,13.71
2018-10-02T09:17:54.706Z,13.82
2018-10-02T09:20:28.167Z,13.91
2018-10-02T09:23:00.521Z,13.96
2018-10-02T09:25:35.260Z,13.95
2018-10-02T09:28:14.165Z,13.80
2018-10-02T09:33:51.913Z,13.88
2018-10-02T09:36:30.990Z,14.01
2018-10-02T09:39:10.695Z,13.88
2018-10-02T09:41:48.989Z,13.81
2018-10-02T09:44:23.045Z,13.84
2018-10-02T09:46:55.550Z,13.90
2018-10-02T09:49:36.639Z,14.22
2018-10-02T09:52:18.377Z,14.55
2018-10-02T09:55:29.356Z,14.58
2018-10-02T09:58:03.001Z,14.51
2018-10-02T10:00:44.635Z,14.46
2018-10-02T10:03:17.842Z,14.26
2018-10-02T10:05:49.724Z,14.11
2018-10-02T10:08:19.525Z,13.81
2018-10-02T10:10:54.978Z,13.63
2018-10-02T10:13:28.708Z,13.62
2018-10-02T10:18:47.745Z,13.38
2018-10-02T10:21:17.764Z,13.26
2018-10-02T10:23:52.588Z,13.21
2018-10-02T10:26:31.889Z,13.15
2018-10-02T10:29:03.253Z,13.21
2018-10-02T10:31:39.296Z,13.17
2018-10-02T10:38:03.125Z,13.44
2018-10-02T11:05:04.655Z,13.65
2018-10-02T11:08:02.310Z,13.87
2018-10-02T11:45:26.271Z,12.79
2018-10-02T11:48:12.054Z,12.93
2018-10-02T11:51:14.108Z,12.95
2018-10-02T11:53:51.106Z,12.94
2018-10-02T12:01:17.472Z,13.06
2018-10-02T12:04:08.064Z,12.93
2018-10-02T12:06:50.271Z,13.15
2018-10-02T12:09:24.624Z,13.20
2018-10-02T12:12:15.085Z,13.18
2018-10-02T12:15:06.284Z,13.23
2018-10-02T12:17:53.726Z,13.13
2018-10-02T12:26:38.323Z,12.95
2018-10-02T12:29:13.159Z,12.80
2018-10-02T12:31:45.186Z,12.84
2018-10-02T12:34:23.203Z,12.91
2018-10-02T12:37:00.120Z,12.97
2018-10-02T12:39:48.283Z,13.04
2018-10-02T12:42:56.496Z,13.03
2018-10-02T13:02:31.407Z,12.91
2018-10-02T13:05:39.454Z,12.80
2018-10-02T13:11:34.210Z,12.76
2018-10-02T13:17:55.715Z,12.61
2018-10-02T13:20:27.168Z,12.58
2018-10-02T13:36:40.210Z,12.52
2018-10-02T13:39:33.473Z,12.72
2018-10-02T13:42:41.574Z,12.67
2018-10-02T14:04:03.807Z,11.99
2018-10-02T14:06:37.957Z,11.88
2018-10-02T14:37:57.873Z,12.18
2018-10-02T14:40:51.440Z,12.21
2018-10-02T14:44:14.779Z,12.27
2018-10-02T14:46:58.310Z,12.26
2018-10-02T15:14:02.197Z,12.50
2018-10-02T15:16:59.320Z,12.46
2018-10-02T15:19:59.186Z,12.48
2018-10-02T15:25:18.559Z,12.50
2018-10-02T15:27:49.558Z,12.47
2018-10-02T15:30:38.656Z,12.46
2018-10-02T15:33:12.349Z,12.50
2018-10-02T15:35:55.268Z,12.55
2018-10-02T15:41:20.803Z,12.57
2018-10-02T15:44:01.573Z,12.62
2018-10-02T15:49:33.316Z,12.71
2018-10-02T15:52:12.906Z,12.74
2018-10-02T15:54:47.942Z,12.74
2018-10-02T15:57:24.068Z,12.78
2018-10-02T15:59:58.004Z,12.80
2018-10-02T16:02:29.531Z,12.80
2018-10-02T16:05:04.510Z,12.80
2018-10-02T16:07:49.330Z,12.83
2018-10-02T16:10:26.058Z,12.86
2018-10-02T16:12:58.787Z,12.84
2018-10-02T16:15:30.111Z,12.91
2018-10-02T16:18:04.807Z,12.92
2018-10-02T16:20:36.013Z,12.92
2018-10-02T16:23:11.595Z,12.93
2018-10-02T16:25:42.384Z,12.80
2018-10-02T16:28:14.691Z,12.60
2018-10-02T16:30:47.033Z,12.31
2018-10-02T16:33:21.765Z,12.16
2018-10-02T16:35:56.254Z,12.13
2018-10-02T16:38:27.849Z,12.12
2018-10-02T16:41:04.135Z,12.13
2018-10-02T16:43:34.524Z,12.10
2018-10-02T16:46:04.640Z,12.01
2018-10-02T16:48:36.196Z,11.96
2018-10-02T16:51:09.162Z,11.83
2018-10-02T16:53:39.861Z,11.74
2018-10-02T16:56:12.578Z,11.67
2018-10-02T16:58:43.837Z,11.63
2018-10-02T17:01:14.779Z,11.63
2018-10-02T17:03:45.902Z,11.64
2018-10-02T17:06:16.494Z,11.69
2018-10-02T17:08:46.248Z,11.76
2018-10-02T17:11:16.185Z,11.84
2018-10-02T17:13:48.621Z,11.96
2018-10-02T17:16:26.361Z,12.06
2018-10-02T17:19:00.345Z,12.11
2018-10-02T17:21:34.793Z,12.14
2018-10-02T17:24:17.219Z,12.21
2018-10-02T17:26:49.456Z,12.26
2018-10-02T17:29:20.611Z,12.28
2018-10-02T17:31:58.987Z,12.30
2018-10-02T17:34:36.249Z,12.31
2018-10-02T17:37:07.730Z,12.31
2018-10-02T17:39:41.558Z,12.34
2018-10-02T17:42:13.079Z,12.38
2018-10-02T17:44:43.538Z,12.42
2018-10-02T17:47:13.459Z,12.43
2018-10-02T17:49:44.695Z,12.44
2018-10-02T17:52:18.582Z,12.47
2018-10-02T17:54:50.570Z,12.52
2018-10-02T17:57:21.214Z,12.56
2018-10-02T17:59:53.103Z,12.58
2018-10-02T18:05:00.792Z,12.62
2018-10-02T18:07:34.588Z,12.69
2018-10-02T18:10:08.688Z,12.65
2018-10-02T18:12:46.020Z,12.61
2018-10-02T18:15:17.429Z,12.62
2018-10-02T18:17:58.323Z,12.62
2018-10-02T18:23:32.728Z,12.68
2018-10-02T18:29:14.876Z,12.70
2018-10-02T18:31:50.173Z,12.74
2018-10-02T18:34:25.411Z,12.78
2018-10-02T18:37:21.188Z,12.84
2018-10-02T18:40:08.762Z,12.89
2018-10-02T18:44:12.748Z,12.90
2018-10-02T18:47:01.435Z,12.70
2018-10-02T18:49:33.848Z,12.64
2018-10-02T18:52:04.083Z,12.62
2018-10-02T18:54:39.717Z,12.66
2018-10-02T18:57:17.205Z,12.78
2018-10-02T18:59:52.595Z,12.87
2018-10-02T19:02:33.489Z,12.92
2018-10-02T19:05:26.718Z,12.97
2018-10-02T19:08:05.146Z,13.05
2018-10-02T19:10:38.745Z,13.11
2018-10-02T19:13:10.222Z,13.14
2018-10-02T19:16:13.413Z,13.21
2018-10-02T19:18:43.694Z,13.22
2018-10-02T19:24:01.692Z,13.28
2018-10-02T19:26:40.521Z,13.37
2018-10-02T19:29:19.598Z,13.38
2018-10-02T19:31:58.124Z,13.38
2018-10-02T19:34:36.729Z,13.35
2018-10-02T19:40:32.783Z,13.43
2018-10-02T19:43:12.440Z,13.45
2018-10-02T19:45:49.955Z,13.51
2018-10-02T19:48:31.240Z,13.51
2018-10-02T19:51:09.004Z,13.50
2018-10-02T19:54:24.928Z,13.54
2018-10-02T19:57:34.586Z,13.52
2018-10-02T20:03:02.599Z,13.52
2018-10-02T20:05:42.679Z,13.57
2018-10-02T20:08:23.026Z,13.61
2018-10-02T20:11:12.361Z,13.67
2018-10-02T20:13:56.536Z,13.62
2018-10-02T20:16:42.715Z,13.68
2018-10-02T20:19:16.395Z,13.67
2018-10-02T20:21:48.997Z,13.67
2018-10-02T20:24:27.208Z,13.73
2018-10-02T20:26:59.042Z,13.72
2018-10-02T20:29:30.861Z,13.74
2018-10-02T20:32:01.426Z,13.74
2018-10-02T20:34:34.216Z,13.77
2018-10-02T20:37:08.554Z,13.84
2018-10-02T20:39:39.425Z,13.91
2018-10-02T20:42:11.388Z,13.89
2018-10-02T20:44:42.737Z,13.88
2018-10-02T20:47:14.278Z,13.91
2018-10-02T20:49:49.549Z,13.88
2018-10-02T20:52:24.975Z,13.90
2018-10-02T20:55:00.422Z,13.93
2018-10-02T20:57:35.192Z,13.96
2018-10-02T21:00:09.312Z,13.97
2018-10-02T21:02:40.456Z,14.01
2018-10-02T21:05:12.234Z,14.00
2018-10-02T21:07:42.240Z,14.02
2018-10-02T21:10:11.803Z,13.96
2018-10-02T21:12:42.171Z,13.96
2018-10-02T21:15:12.226Z,13.95
2018-10-02T21:17:55.154Z,13.92
2018-10-02T21:21:01.110Z,13.86
2018-10-02T21:23:49.429Z,13.81
2018-10-02T21:26:19.118Z,13.83
2018-10-02T21:28:50.066Z,13.85
2018-10-02T21:31:27.405Z,13.82
2018-10-02T21:34:24.231Z,13.78
2018-10-02T21:37:07.569Z,13.82
2018-10-02T21:40:44.301Z,13.85
2018-10-02T21:43:15.978Z,13.86
2018-10-02T21:45:49.353Z,13.89
2018-10-02T21:48:47.927Z,13.90
2018-10-02T21:51:18.149Z,13.92
2018-10-02T21:53:53.779Z,13.92
2018-10-02T21:56:23.739Z,13.96
2018-10-02T21:58:58.579Z,13.93
2018-10-02T22:01:38.640Z,13.92
2018-10-02T22:04:24.313Z,13.93
2018-10-02T22:07:01.773Z,13.93
2018-10-02T22:09:32.664Z,13.94
2018-10-02T22:12:11.267Z,13.94
2018-10-02T22:14:46.042Z,13.90
2018-10-02T22:17:18.430Z,13.93
2018-10-02T22:19:51.270Z,13.94
2018-10-02T22:22:20.781Z,14.02
2018-10-02T22:28:28.250Z,13.96
2018-10-02T22:30:59.455Z,13.96
2018-10-02T22:33:43.311Z,13.97
2018-10-02T22:36:14.955Z,13.98
2018-10-02T22:38:47.551Z,13.94
2018-10-02T22:43:56.216Z,13.93
2018-10-02T22:46:27.453Z,13.92
2018-10-02T22:49:15.306Z,13.92
2018-10-02T22:51:56.867Z,13.94
2018-10-02T22:54:35.555Z,13.99
2018-10-02T22:57:20.346Z,14.02
2018-10-02T23:01:24.031Z,14.05
2018-10-02T23:10:47.307Z,13.94
2018-10-02T23:13:18.058Z,13.88
2018-10-02T23:16:04.093Z,13.84
2018-10-02T23:19:08.289Z,13.79
2018-10-02T23:21:37.828Z,13.72
2018-10-02T23:24:07.565Z,13.71
2018-10-02T23:27:14.899Z,13.73
2018-10-02T23:29:44.773Z,13.67
2018-10-02T23:47:02.665Z,13.53
2018-10-02T23:49:36.641Z,13.58
2018-10-02T23:52:06.377Z,13.69
2018-10-02T23:54:36.983Z,13.75
2018-10-02T23:57:08.189Z,13.87
2018-10-02T23:59:39.786Z,13.96
